sensor_id;sensor_type;location;lat;lon;timestamp;pressure;altitude;pressure_sealevel;temperature;humidity
54022;BME280;39936;51.058;17.220;2023-04-05T00:09:43;102444.23;;;-1.21;77.90
54022;BME280;39936;51.058;17.220;2023-04-05T00:14:14;102438.82;;;-1.18;77.74
54022;BME280;39936;51.058;17.220;2023-04-05T00:17:46;102431.34;;;-1.26;77.94
54022;BME280;39936;51.058;17.220;2023-04-05T00:21:46;102441.25;;;-1.22;78.03
54022;BME280;39936;51.058;17.220;2023-04-05T00:29:05;102435.87;;;-1.27;78.02
54022;BME280;39936;51.058;17.220;2023-04-05T00:32:38;102434.36;;;-1.25;77.94
54022;BME280;39936;51.058;17.220;2023-04-05T00:36:27;102435.13;;;-1.26;78.00
54022;BME280;39936;51.058;17.220;2023-04-05T00:40:09;102434.81;;;-1.31;78.44
54022;BME280;39936;51.058;17.220;2023-04-05T00:43:51;102427.70;;;-1.41;78.65
54022;BME280;39936;51.058;17.220;2023-04-05T00:51:39;102438.99;;;-1.61;79.42
54022;BME280;39936;51.058;17.220;2023-04-05T00:55:35;102441.16;;;-1.69;80.29
54022;BME280;39936;51.058;17.220;2023-04-05T00:59:05;102433.44;;;-1.79;80.46
54022;BME280;39936;51.058;17.220;2023-04-05T01:02:51;102426.47;;;-1.86;80.65
54022;BME280;39936;51.058;17.220;2023-04-05T01:10:45;102422.42;;;-2.01;80.83
54022;BME280;39936;51.058;17.220;2023-04-05T01:14:29;102420.30;;;-2.08;81.17
54022;BME280;39936;51.058;17.220;2023-04-05T01:18:24;102418.64;;;-2.12;81.39
54022;BME280;39936;51.058;17.220;2023-04-05T01:27:12;102411.23;;;-2.17;81.30
54022;BME280;39936;51.058;17.220;2023-04-05T01:30:38;102414.89;;;-2.21;81.49
54022;BME280;39936;51.058;17.220;2023-04-05T01:34:39;102410.07;;;-2.31;82.06
54022;BME280;39936;51.058;17.220;2023-04-05T01:38:23;102406.94;;;-2.43;82.52
54022;BME280;39936;51.058;17.220;2023-04-05T01:42:05;102402.59;;;-2.58;83.15
54022;BME280;39936;51.058;17.220;2023-04-05T01:46:04;102408.77;;;-2.66;83.55
54022;BME280;39936;51.058;17.220;2023-04-05T01:50:07;102407.19;;;-2.72;84.13
54022;BME280;39936;51.058;17.220;2023-04-05T01:53:58;102405.26;;;-2.73;84.34
54022;BME280;39936;51.058;17.220;2023-04-05T02:02:03;102407.18;;;-2.81;84.79
54022;BME280;39936;51.058;17.220;2023-04-05T02:09:19;102407.51;;;-2.88;85.90
54022;BME280;39936;51.058;17.220;2023-04-05T02:13:38;102401.05;;;-2.96;86.30
54022;BME280;39936;51.058;17.220;2023-04-05T02:17:42;102387.59;;;-3.12;86.68
54022;BME280;39936;51.058;17.220;2023-04-05T02:21:50;102399.99;;;-3.08;87.17
54022;BME280;39936;51.058;17.220;2023-04-05T02:25:11;102394.84;;;-3.10;87.56
54022;BME280;39936;51.058;17.220;2023-04-05T02:29:01;102391.05;;;-3.10;87.62
54022;BME280;39936;51.058;17.220;2023-04-05T02:36:16;102378.39;;;-3.12;87.17
54022;BME280;39936;51.058;17.220;2023-04-05T02:40:22;102376.13;;;-3.13;86.80
54022;BME280;39936;51.058;17.220;2023-04-05T02:44:45;102373.10;;;-3.20;86.81
54022;BME280;39936;51.058;17.220;2023-04-05T02:48:37;102363.71;;;-3.23;87.70
54022;BME280;39936;51.058;17.220;2023-04-05T02:51:56;102362.48;;;-3.20;88.22
54022;BME280;39936;51.058;17.220;2023-04-05T02:55:31;102354.20;;;-3.23;88.72
54022;BME280;39936;51.058;17.220;2023-04-05T02:59:24;102362.90;;;-3.12;88.86
54022;BME280;39936;51.058;17.220;2023-04-05T03:02:49;102372.25;;;-3.03;88.71
54022;BME280;39936;51.058;17.220;2023-04-05T03:06:28;102366.10;;;-3.05;88.40
54022;BME280;39936;51.058;17.220;2023-04-05T03:10:13;102366.41;;;-3.15;88.30
54022;BME280;39936;51.058;17.220;2023-04-05T03:14:18;102364.78;;;-3.22;87.99
54022;BME280;39936;51.058;17.220;2023-04-05T03:22:03;102361.90;;;-3.33;88.78
54022;BME280;39936;51.058;17.220;2023-04-05T03:29:31;102359.50;;;-3.23;89.34
54022;BME280;39936;51.058;17.220;2023-04-05T03:33:19;102359.74;;;-3.24;89.78
54022;BME280;39936;51.058;17.220;2023-04-05T03:37:01;102349.62;;;-3.36;90.98
54022;BME280;39936;51.058;17.220;2023-04-05T03:41:26;102354.96;;;-3.30;90.74
54022;BME280;39936;51.058;17.220;2023-04-05T03:45:02;102356.79;;;-3.33;90.97
54022;BME280;39936;51.058;17.220;2023-04-05T03:48:45;102363.09;;;-3.37;91.24
54022;BME280;39936;51.058;17.220;2023-04-05T04:00:50;102362.82;;;-3.37;90.86
54022;BME280;39936;51.058;17.220;2023-04-05T04:05:02;102363.91;;;-3.39;90.47
54022;BME280;39936;51.058;17.220;2023-04-05T04:08:46;102366.14;;;-3.42;90.17
54022;BME280;39936;51.058;17.220;2023-04-05T04:13:15;102365.48;;;-3.47;90.02
54022;BME280;39936;51.058;17.220;2023-04-05T04:16:52;102376.38;;;-3.53;89.78
54022;BME280;39936;51.058;17.220;2023-04-05T04:20:22;102378.13;;;-3.58;89.65
54022;BME280;39936;51.058;17.220;2023-04-05T04:24:13;102345.62;;;-3.86;89.70
54022;BME280;39936;51.058;17.220;2023-04-05T04:27:42;102360.05;;;-3.79;90.05
54022;BME280;39936;51.058;17.220;2023-04-05T04:32:02;102385.84;;;-3.63;90.78
54022;BME280;39936;51.058;17.220;2023-04-05T04:36:34;102391.47;;;-3.51;91.49
54022;BME280;39936;51.058;17.220;2023-04-05T04:40:12;102392.97;;;-3.36;92.48
54022;BME280;39936;51.058;17.220;2023-04-05T04:44:10;102391.95;;;-3.27;92.97
54022;BME280;39936;51.058;17.220;2023-04-05T04:48:07;102365.48;;;-3.38;93.17
54022;BME280;39936;51.058;17.220;2023-04-05T04:52:12;102392.59;;;-3.12;93.61
54022;BME280;39936;51.058;17.220;2023-04-05T04:55:28;102389.34;;;-3.03;93.61
54022;BME280;39936;51.058;17.220;2023-04-05T04:59:19;102389.33;;;-3.00;93.60
54022;BME280;39936;51.058;17.220;2023-04-05T05:03:10;102395.11;;;-2.47;94.95
54022;BME280;39936;51.058;17.220;2023-04-05T05:07:28;102350.45;;;-1.89;96.24
54022;BME280;39936;51.058;17.220;2023-04-05T05:11:40;102375.25;;;-1.22;93.79
54022;BME280;39936;51.058;17.220;2023-04-05T05:19:28;102380.66;;;0.11;89.93
54022;BME280;39936;51.058;17.220;2023-04-05T05:23:14;102378.46;;;0.12;85.98
54022;BME280;39936;51.058;17.220;2023-04-05T05:26:52;102382.34;;;-0.17;83.34
54022;BME280;39936;51.058;17.220;2023-04-05T05:30:42;102351.55;;;-0.74;82.18
54022;BME280;39936;51.058;17.220;2023-04-05T05:34:02;102392.20;;;-0.85;82.20
54022;BME280;39936;51.058;17.220;2023-04-05T05:41:47;102398.48;;;-0.99;83.79
54022;BME280;39936;51.058;17.220;2023-04-05T05:45:39;102390.16;;;-0.96;83.67
54022;BME280;39936;51.058;17.220;2023-04-05T05:49:18;102387.34;;;-1.06;83.46
54022;BME280;39936;51.058;17.220;2023-04-05T05:53:36;102391.89;;;-1.19;83.78
54022;BME280;39936;51.058;17.220;2023-04-05T05:57:01;102374.95;;;-1.43;84.66
54022;BME280;39936;51.058;17.220;2023-04-05T06:00:42;102395.15;;;-1.34;85.24
54022;BME280;39936;51.058;17.220;2023-04-05T06:04:05;102393.09;;;-1.38;85.68
54022;BME280;39936;51.058;17.220;2023-04-05T06:07:48;102395.48;;;-1.39;86.09
54022;BME280;39936;51.058;17.220;2023-04-05T06:11:15;102370.09;;;-1.45;86.78
54022;BME280;39936;51.058;17.220;2023-04-05T06:14:32;102388.98;;;-1.23;87.06
54022;BME280;39936;51.058;17.220;2023-04-05T06:17:52;102380.38;;;-1.14;87.08
54022;BME280;39936;51.058;17.220;2023-04-05T06:21:31;102377.50;;;-1.03;87.22
54022;BME280;39936;51.058;17.220;2023-04-05T06:25:35;102379.41;;;-0.87;87.20
54022;BME280;39936;51.058;17.220;2023-04-05T06:29:25;102381.37;;;-0.69;87.17
54022;BME280;39936;51.058;17.220;2023-04-05T06:33:07;102379.24;;;-0.54;86.97
54022;BME280;39936;51.058;17.220;2023-04-05T06:36:30;102386.88;;;-0.36;87.19
54022;BME280;39936;51.058;17.220;2023-04-05T06:40:10;102379.41;;;-0.25;86.64
54022;BME280;39936;51.058;17.220;2023-04-05T06:44:03;102380.59;;;-0.18;85.32
54022;BME280;39936;51.058;17.220;2023-04-05T06:47:38;102370.87;;;-0.10;85.09
54022;BME280;39936;51.058;17.220;2023-04-05T06:51:49;102344.16;;;-0.17;84.87
54022;BME280;39936;51.058;17.220;2023-04-05T06:55:10;102365.00;;;0.17;84.80
54022;BME280;39936;51.058;17.220;2023-04-05T06:58:28;102332.73;;;0.25;83.56
54022;BME280;39936;51.058;17.220;2023-04-05T07:01:52;102367.25;;;0.62;81.64
54022;BME280;39936;51.058;17.220;2023-04-05T07:05:38;102370.32;;;0.71;80.61
54022;BME280;39936;51.058;17.220;2023-04-05T07:09:28;102370.02;;;0.76;80.61
54022;BME280;39936;51.058;17.220;2023-04-05T07:13:12;102342.35;;;0.76;81.10
54022;BME280;39936;51.058;17.220;2023-04-05T07:16:49;102372.08;;;1.07;80.97
54022;BME280;39936;51.058;17.220;2023-04-05T07:20:13;102373.36;;;1.25;80.46
54022;BME280;39936;51.058;17.220;2023-04-05T07:24:08;102367.59;;;1.34;80.01
54022;BME280;39936;51.058;17.220;2023-04-05T07:27:48;102336.83;;;1.27;78.82
54022;BME280;39936;51.058;17.220;2023-04-05T07:31:46;102377.52;;;1.62;78.38
54022;BME280;39936;51.058;17.220;2023-04-05T07:35:07;102349.52;;;1.56;77.90
54022;BME280;39936;51.058;17.220;2023-04-05T07:38:32;102383.95;;;1.80;76.66
54022;BME280;39936;51.058;17.220;2023-04-05T07:41:50;102378.10;;;1.92;75.48
54022;BME280;39936;51.058;17.220;2023-04-05T07:45:25;102358.70;;;1.86;74.67
54022;BME280;39936;51.058;17.220;2023-04-05T07:48:46;102347.77;;;1.80;74.81
54022;BME280;39936;51.058;17.220;2023-04-05T07:52:05;102378.10;;;1.95;75.05
54022;BME280;39936;51.058;17.220;2023-04-05T07:56:09;102380.18;;;1.88;76.10
54022;BME280;39936;51.058;17.220;2023-04-05T07:59:59;102382.95;;;1.84;75.48
54022;BME280;39936;51.058;17.220;2023-04-05T08:03:17;102389.69;;;1.72;75.12
54022;BME280;39936;51.058;17.220;2023-04-05T08:06:54;102392.95;;;1.62;75.24
54022;BME280;39936;51.058;17.220;2023-04-05T08:10:10;102389.27;;;1.55;76.23
54022;BME280;39936;51.058;17.220;2023-04-05T08:13:41;102389.91;;;1.53;77.27
54022;BME280;39936;51.058;17.220;2023-04-05T08:17:00;102385.65;;;1.58;77.92
54022;BME280;39936;51.058;17.220;2023-04-05T08:20:22;102381.56;;;1.56;77.59
54022;BME280;39936;51.058;17.220;2023-04-05T08:24:25;102384.55;;;1.68;78.52
54022;BME280;39936;51.058;17.220;2023-04-05T08:31:56;102372.59;;;1.97;77.11
54022;BME280;39936;51.058;17.220;2023-04-05T08:35:42;102364.92;;;2.17;77.30
54022;BME280;39936;51.058;17.220;2023-04-05T08:39:54;102336.26;;;2.36;76.28
54022;BME280;39936;51.058;17.220;2023-04-05T08:46:43;102362.30;;;2.92;76.29
54022;BME280;39936;51.058;17.220;2023-04-05T08:50:02;102358.97;;;3.07;74.82
54022;BME280;39936;51.058;17.220;2023-04-05T08:53:23;102355.59;;;3.41;72.46
54022;BME280;39936;51.058;17.220;2023-04-05T08:56:46;102356.83;;;3.37;68.34
54022;BME280;39936;51.058;17.220;2023-04-05T09:00:28;102354.52;;;3.51;70.19
54022;BME280;39936;51.058;17.220;2023-04-05T09:04:18;102351.13;;;3.69;70.58
54022;BME280;39936;51.058;17.220;2023-04-05T09:07:41;102350.05;;;3.82;69.00
54022;BME280;39936;51.058;17.220;2023-04-05T09:11:11;102340.80;;;3.96;69.03
54022;BME280;39936;51.058;17.220;2023-04-05T09:15:11;102346.57;;;4.15;66.74
54022;BME280;39936;51.058;17.220;2023-04-05T09:18:30;102338.61;;;4.43;67.50
54022;BME280;39936;51.058;17.220;2023-04-05T09:22:02;102337.40;;;4.37;65.31
54022;BME280;39936;51.058;17.220;2023-04-05T09:25:34;102340.01;;;4.14;63.37
54022;BME280;39936;51.058;17.220;2023-04-05T09:32:46;102341.11;;;3.82;66.99
54022;BME280;39936;51.058;17.220;2023-04-05T09:36:12;102334.30;;;4.02;68.32
54022;BME280;39936;51.058;17.220;2023-04-05T09:39:32;102329.08;;;4.21;68.55
54022;BME280;39936;51.058;17.220;2023-04-05T09:43:41;102327.65;;;4.50;68.17
54022;BME280;39936;51.058;17.220;2023-04-05T09:50:31;102320.68;;;5.40;62.48
54022;BME280;39936;51.058;17.220;2023-04-05T09:57:43;102314.16;;;4.44;59.86
54022;BME280;39936;51.058;17.220;2023-04-05T10:01:07;102318.01;;;4.42;61.63
54022;BME280;39936;51.058;17.220;2023-04-05T10:04:24;102315.54;;;4.12;63.28
54022;BME280;39936;51.058;17.220;2023-04-05T10:07:45;102316.51;;;4.37;65.88
54022;BME280;39936;51.058;17.220;2023-04-05T10:11:05;102273.20;;;4.37;64.88
54022;BME280;39936;51.058;17.220;2023-04-05T10:14:53;102296.50;;;4.73;64.56
54022;BME280;39936;51.058;17.220;2023-04-05T10:18:21;102302.41;;;4.74;66.13
54022;BME280;39936;51.058;17.220;2023-04-05T10:21:53;102302.92;;;4.61;67.11
54022;BME280;39936;51.058;17.220;2023-04-05T10:29:26;102309.21;;;4.63;67.01
54022;BME280;39936;51.058;17.220;2023-04-05T10:33:25;102308.05;;;4.38;67.46
54022;BME280;39936;51.058;17.220;2023-04-05T10:41:21;102295.70;;;4.55;64.57
54022;BME280;39936;51.058;17.220;2023-04-05T10:44:38;102291.71;;;4.77;63.92
54022;BME280;39936;51.058;17.220;2023-04-05T10:51:34;102283.23;;;5.19;65.18
54022;BME280;39936;51.058;17.220;2023-04-05T10:59:56;102273.97;;;5.44;64.38
54022;BME280;39936;51.058;17.220;2023-04-05T11:03:51;102256.68;;;5.87;63.21
54022;BME280;39936;51.058;17.220;2023-04-05T11:07:44;102250.07;;;6.18;62.58
54022;BME280;39936;51.058;17.220;2023-04-05T11:15:29;102244.07;;;6.54;61.85
54022;BME280;39936;51.058;17.220;2023-04-05T11:19:50;102240.99;;;6.50;59.47
54022;BME280;39936;51.058;17.220;2023-04-05T11:26:58;102238.69;;;6.05;58.80
54022;BME280;39936;51.058;17.220;2023-04-05T11:30:46;102247.27;;;5.60;60.03
54022;BME280;39936;51.058;17.220;2023-04-05T11:35:18;102244.34;;;5.27;61.14
54022;BME280;39936;51.058;17.220;2023-04-05T11:38:36;102242.52;;;5.22;59.04
54022;BME280;39936;51.058;17.220;2023-04-05T11:42:25;102246.32;;;5.13;59.83
54022;BME280;39936;51.058;17.220;2023-04-05T11:49:42;102246.92;;;5.10;58.50
54022;BME280;39936;51.058;17.220;2023-04-05T11:53:14;102246.07;;;4.69;60.66
54022;BME280;39936;51.058;17.220;2023-04-05T11:56:56;102249.84;;;4.82;62.14
54022;BME280;39936;51.058;17.220;2023-04-05T12:04:17;102244.71;;;4.90;60.97
54022;BME280;39936;51.058;17.220;2023-04-05T12:07:55;102240.80;;;4.95;61.56
54022;BME280;39936;51.058;17.220;2023-04-05T12:11:52;102246.03;;;5.05;61.39
54022;BME280;39936;51.058;17.220;2023-04-05T12:15:13;102232.04;;;4.90;62.61
54022;BME280;39936;51.058;17.220;2023-04-05T12:19:03;102244.84;;;4.92;62.48
54022;BME280;39936;51.058;17.220;2023-04-05T12:22:23;102226.48;;;4.77;62.44
54022;BME280;39936;51.058;17.220;2023-04-05T12:26:23;102238.63;;;5.06;63.08
54022;BME280;39936;51.058;17.220;2023-04-05T12:30:19;102230.68;;;5.48;62.76
54022;BME280;39936;51.058;17.220;2023-04-05T12:34:14;102223.61;;;5.48;65.58
54022;BME280;39936;51.058;17.220;2023-04-05T12:38:04;102211.35;;;5.58;65.04
54022;BME280;39936;51.058;17.220;2023-04-05T12:41:30;102219.73;;;5.07;64.94
54022;BME280;39936;51.058;17.220;2023-04-05T12:48:23;102222.09;;;4.64;66.06
54022;BME280;39936;51.058;17.220;2023-04-05T12:52:26;102224.59;;;4.51;67.91
54022;BME280;39936;51.058;17.220;2023-04-05T13:00:06;102227.83;;;4.39;67.49
54022;BME280;39936;51.058;17.220;2023-04-05T13:03:27;102224.24;;;4.22;67.39
54022;BME280;39936;51.058;17.220;2023-04-05T13:06:59;102219.50;;;4.37;67.93
54022;BME280;39936;51.058;17.220;2023-04-05T13:10:36;102223.09;;;4.56;66.31
54022;BME280;39936;51.058;17.220;2023-04-05T13:13:59;102232.40;;;4.39;66.73
54022;BME280;39936;51.058;17.220;2023-04-05T13:17:17;102213.40;;;4.09;67.74
54022;BME280;39936;51.058;17.220;2023-04-05T13:20:36;102233.71;;;4.34;68.01
54022;BME280;39936;51.058;17.220;2023-04-05T13:23:53;102228.82;;;4.41;68.25
54022;BME280;39936;51.058;17.220;2023-04-05T13:27:38;102225.10;;;4.72;68.26
54022;BME280;39936;51.058;17.220;2023-04-05T13:31:23;102226.42;;;4.56;69.96
54022;BME280;39936;51.058;17.220;2023-04-05T13:34:45;102223.95;;;4.04;72.14
54022;BME280;39936;51.058;17.220;2023-04-05T13:38:50;102214.23;;;3.78;72.50
54022;BME280;39936;51.058;17.220;2023-04-05T13:42:26;102211.79;;;3.84;74.38
54022;BME280;39936;51.058;17.220;2023-04-05T13:45:51;102191.23;;;3.56;73.15
54022;BME280;39936;51.058;17.220;2023-04-05T13:49:52;102208.89;;;3.51;75.15
54022;BME280;39936;51.058;17.220;2023-04-05T13:53:10;102228.41;;;3.61;76.49
54022;BME280;39936;51.058;17.220;2023-04-05T13:57:25;102223.63;;;3.53;77.09
54022;BME280;39936;51.058;17.220;2023-04-05T14:01:05;102247.64;;;3.40;81.81
54022;BME280;39936;51.058;17.220;2023-04-05T14:04:21;102246.72;;;3.20;82.36
54022;BME280;39936;51.058;17.220;2023-04-05T14:07:39;102242.09;;;3.11;84.46
54022;BME280;39936;51.058;17.220;2023-04-05T14:11:00;102255.25;;;3.03;86.67
54022;BME280;39936;51.058;17.220;2023-04-05T14:18:40;102241.77;;;2.97;88.59
54022;BME280;39936;51.058;17.220;2023-04-05T14:22:18;102232.12;;;2.78;89.30
54022;BME280;39936;51.058;17.220;2023-04-05T14:25:54;102231.16;;;2.98;90.24
54022;BME280;39936;51.058;17.220;2023-04-05T14:29:59;102225.20;;;2.87;90.99
54022;BME280;39936;51.058;17.220;2023-04-05T14:34:00;102224.38;;;3.08;91.95
54022;BME280;39936;51.058;17.220;2023-04-05T14:37:38;102228.92;;;3.03;90.77
54022;BME280;39936;51.058;17.220;2023-04-05T14:41:14;102228.36;;;3.21;90.51
54022;BME280;39936;51.058;17.220;2023-04-05T14:44:53;102228.46;;;3.43;90.65
54022;BME280;39936;51.058;17.220;2023-04-05T14:48:35;102222.45;;;3.66;90.11
54022;BME280;39936;51.058;17.220;2023-04-05T14:52:27;102222.70;;;3.82;88.04
54022;BME280;39936;51.058;17.220;2023-04-05T14:55:45;102180.41;;;3.95;86.23
54022;BME280;39936;51.058;17.220;2023-04-05T14:59:10;102215.34;;;4.32;84.33
54022;BME280;39936;51.058;17.220;2023-04-05T15:02:53;102212.67;;;4.54;83.46
54022;BME280;39936;51.058;17.220;2023-04-05T15:07:02;102216.36;;;4.58;82.06
54022;BME280;39936;51.058;17.220;2023-04-05T15:14:34;102213.91;;;4.83;77.56
54022;BME280;39936;51.058;17.220;2023-04-05T15:18:17;102206.48;;;4.74;73.47
54022;BME280;39936;51.058;17.220;2023-04-05T15:22:12;102199.43;;;4.86;76.91
54022;BME280;39936;51.058;17.220;2023-04-05T15:25:29;102195.97;;;5.21;75.41
54022;BME280;39936;51.058;17.220;2023-04-05T15:28:47;102197.21;;;5.15;74.11
54022;BME280;39936;51.058;17.220;2023-04-05T15:32:53;102193.93;;;5.29;70.72
54022;BME280;39936;51.058;17.220;2023-04-05T15:37:03;102191.28;;;5.07;70.16
54022;BME280;39936;51.058;17.220;2023-04-05T15:41:15;102192.05;;;5.09;70.23
54022;BME280;39936;51.058;17.220;2023-04-05T15:44:30;102193.55;;;5.03;69.01
54022;BME280;39936;51.058;17.220;2023-04-05T15:47:49;102191.88;;;4.99;69.18
54022;BME280;39936;51.058;17.220;2023-04-05T15:51:20;102189.41;;;4.94;70.38
54022;BME280;39936;51.058;17.220;2023-04-05T15:54:57;102194.34;;;4.97;69.77
54022;BME280;39936;51.058;17.220;2023-04-05T15:58:38;102195.57;;;5.04;69.95
54022;BME280;39936;51.058;17.220;2023-04-05T16:02:21;102196.95;;;4.87;69.30
54022;BME280;39936;51.058;17.220;2023-04-05T16:06:27;102180.18;;;4.69;70.12
54022;BME280;39936;51.058;17.220;2023-04-05T16:10:23;102195.34;;;4.95;69.39
54022;BME280;39936;51.058;17.220;2023-04-05T16:14:23;102194.14;;;5.12;68.53
54022;BME280;39936;51.058;17.220;2023-04-05T16:18:21;102192.98;;;5.05;70.96
54022;BME280;39936;51.058;17.220;2023-04-05T16:22:12;102195.80;;;5.04;70.44
54022;BME280;39936;51.058;17.220;2023-04-05T16:26:35;102196.57;;;4.93;71.47
54022;BME280;39936;51.058;17.220;2023-04-05T16:30:00;102203.80;;;4.62;73.38
54022;BME280;39936;51.058;17.220;2023-04-05T16:37:32;102209.21;;;4.39;74.22
54022;BME280;39936;51.058;17.220;2023-04-05T16:41:14;102211.16;;;4.34;74.50
54022;BME280;39936;51.058;17.220;2023-04-05T16:45:24;102210.42;;;4.24;74.68
54022;BME280;39936;51.058;17.220;2023-04-05T16:49:59;102210.21;;;4.34;74.85
54022;BME280;39936;51.058;17.220;2023-04-05T16:53:57;102213.88;;;4.31;75.38
54022;BME280;39936;51.058;17.220;2023-04-05T16:57:17;102191.23;;;4.03;75.60
54022;BME280;39936;51.058;17.220;2023-04-05T17:01:19;102214.16;;;3.87;77.66
54022;BME280;39936;51.058;17.220;2023-04-05T17:12:57;102217.38;;;3.74;78.89
54022;BME280;39936;51.058;17.220;2023-04-05T17:16:24;102219.11;;;3.73;78.54
54022;BME280;39936;51.058;17.220;2023-04-05T17:20:11;102218.48;;;3.62;78.54
54022;BME280;39936;51.058;17.220;2023-04-05T17:24:11;102222.26;;;3.53;78.38
54022;BME280;39936;51.058;17.220;2023-04-05T17:31:37;102236.09;;;3.26;78.69
54022;BME280;39936;51.058;17.220;2023-04-05T17:35:21;102242.52;;;3.05;78.74
54022;BME280;39936;51.058;17.220;2023-04-05T17:39:25;102250.11;;;2.84;78.95
54022;BME280;39936;51.058;17.220;2023-04-05T17:43:45;102254.02;;;2.66;79.61
54022;BME280;39936;51.058;17.220;2023-04-05T17:47:08;102257.18;;;2.53;80.50
54022;BME280;39936;51.058;17.220;2023-04-05T17:55:10;102230.16;;;2.07;81.47
54022;BME280;39936;51.058;17.220;2023-04-05T17:59:27;102262.10;;;2.10;82.26
54022;BME280;39936;51.058;17.220;2023-04-05T18:03:16;102273.20;;;2.00;82.96
54022;BME280;39936;51.058;17.220;2023-04-05T18:07:20;102275.87;;;1.86;83.55
54022;BME280;39936;51.058;17.220;2023-04-05T18:11:02;102287.09;;;1.56;85.51
54022;BME280;39936;51.058;17.220;2023-04-05T18:14:31;102290.53;;;1.45;85.81
54022;BME280;39936;51.058;17.220;2023-04-05T18:21:48;102307.15;;;1.15;90.33
54022;BME280;39936;51.058;17.220;2023-04-05T18:26:08;102307.22;;;0.94;96.29
54022;BME280;39936;51.058;17.220;2023-04-05T18:30:22;102308.27;;;0.88;97.12
54022;BME280;39936;51.058;17.220;2023-04-05T18:34:17;102313.89;;;0.89;96.74
54022;BME280;39936;51.058;17.220;2023-04-05T18:37:53;102315.37;;;0.92;95.82
54022;BME280;39936;51.058;17.220;2023-04-05T18:42:01;102315.77;;;0.95;95.18
54022;BME280;39936;51.058;17.220;2023-04-05T18:45:32;102317.59;;;0.90;94.74
54022;BME280;39936;51.058;17.220;2023-04-05T18:48:54;102323.45;;;0.78;94.82
54022;BME280;39936;51.058;17.220;2023-04-05T18:52:42;102280.37;;;0.44;94.56
54022;BME280;39936;51.058;17.220;2023-04-05T18:56:34;102324.37;;;0.61;94.80
54022;BME280;39936;51.058;17.220;2023-04-05T19:00:30;102319.39;;;0.46;95.03
54022;BME280;39936;51.058;17.220;2023-04-05T19:04:31;102324.14;;;0.47;94.94
54022;BME280;39936;51.058;17.220;2023-04-05T19:08:15;102326.60;;;0.31;95.49
54022;BME280;39936;51.058;17.220;2023-04-05T19:12:03;102297.40;;;-0.06;96.48
54022;BME280;39936;51.058;17.220;2023-04-05T19:15:46;102294.13;;;-0.15;96.27
54022;BME280;39936;51.058;17.220;2023-04-05T19:23:27;102335.74;;;-0.08;96.89
54022;BME280;39936;51.058;17.220;2023-04-05T19:27:20;102336.25;;;-0.19;97.45
54022;BME280;39936;51.058;17.220;2023-04-05T19:31:25;102330.66;;;-0.38;99.16
54022;BME280;39936;51.058;17.220;2023-04-05T19:35:12;102329.33;;;-0.50;100.00
54022;BME280;39936;51.058;17.220;2023-04-05T19:39:21;102325.07;;;-0.55;100.00
54022;BME280;39936;51.058;17.220;2023-04-05T19:43:16;102324.34;;;-0.48;100.00
54022;BME280;39936;51.058;17.220;2023-04-05T19:47:13;102293.41;;;-0.63;100.00
54022;BME280;39936;51.058;17.220;2023-04-05T19:51:13;102318.98;;;-0.42;100.00
54022;BME280;39936;51.058;17.220;2023-04-05T19:55:06;102316.38;;;-0.44;100.00
54022;BME280;39936;51.058;17.220;2023-04-05T19:58:34;102312.93;;;-0.41;100.00
54022;BME280;39936;51.058;17.220;2023-04-05T20:03:26;102313.53;;;-0.44;100.00
54022;BME280;39936;51.058;17.220;2023-04-05T20:07:32;102312.71;;;-0.56;100.00
54022;BME280;39936;51.058;17.220;2023-04-05T20:11:27;102314.91;;;-0.55;100.00
54022;BME280;39936;51.058;17.220;2023-04-05T20:14:52;102312.86;;;-0.57;100.00
54022;BME280;39936;51.058;17.220;2023-04-05T20:18:34;102311.55;;;-0.69;100.00
54022;BME280;39936;51.058;17.220;2023-04-05T20:22:41;102272.65;;;-1.00;100.00
54022;BME280;39936;51.058;17.220;2023-04-05T20:29:58;102309.21;;;-0.92;100.00
54022;BME280;39936;51.058;17.220;2023-04-05T20:33:48;102306.08;;;-0.94;100.00
54022;BME280;39936;51.058;17.220;2023-04-05T20:37:23;102301.28;;;-0.96;100.00
54022;BME280;39936;51.058;17.220;2023-04-05T20:41:14;102305.65;;;-0.93;100.00
54022;BME280;39936;51.058;17.220;2023-04-05T20:48:53;102295.24;;;-0.94;100.00
54022;BME280;39936;51.058;17.220;2023-04-05T20:52:38;102294.41;;;-0.97;100.00
54022;BME280;39936;51.058;17.220;2023-04-05T20:55:56;102288.11;;;-1.00;100.00
54022;BME280;39936;51.058;17.220;2023-04-05T21:00:08;102291.55;;;-1.01;100.00
54022;BME280;39936;51.058;17.220;2023-04-05T21:08:15;102292.84;;;-1.38;100.00
54022;BME280;39936;51.058;17.220;2023-04-05T21:11:58;102296.01;;;-1.35;100.00
54022;BME280;39936;51.058;17.220;2023-04-05T21:19:36;102294.25;;;-1.29;100.00
54022;BME280;39936;51.058;17.220;2023-04-05T21:27:13;102297.22;;;-1.41;100.00
54022;BME280;39936;51.058;17.220;2023-04-05T21:31:00;102298.95;;;-1.45;100.00
54022;BME280;39936;51.058;17.220;2023-04-05T21:35:05;102299.47;;;-1.46;100.00
54022;BME280;39936;51.058;17.220;2023-04-05T21:38:28;102300.23;;;-1.50;100.00
54022;BME280;39936;51.058;17.220;2023-04-05T21:42:22;102299.64;;;-1.48;100.00
54022;BME280;39936;51.058;17.220;2023-04-05T21:46:17;102297.10;;;-1.45;100.00
54022;BME280;39936;51.058;17.220;2023-04-05T21:54:42;102302.58;;;-1.79;100.00
54022;BME280;39936;51.058;17.220;2023-04-05T21:59:00;102302.56;;;-1.99;100.00
54022;BME280;39936;51.058;17.220;2023-04-05T22:02:25;102298.70;;;-1.96;100.00
54022;BME280;39936;51.058;17.220;2023-04-05T22:10:27;102296.44;;;-1.80;100.00
54022;BME280;39936;51.058;17.220;2023-04-05T22:14:37;102296.96;;;-1.76;100.00
54022;BME280;39936;51.058;17.220;2023-04-05T22:22:28;102302.58;;;-1.92;100.00
54022;BME280;39936;51.058;17.220;2023-04-05T22:25:56;102301.16;;;-1.94;100.00
54022;BME280;39936;51.058;17.220;2023-04-05T22:29:35;102299.48;;;-1.97;100.00